createdAt,value
2018-04-14T00:02:11.634Z,8.93
2018-04-14T00:04:39.979Z,8.13
2018-04-14T00:07:08.274Z,8.07
2018-04-14T00:09:37.327Z,9.60
2018-04-14T00:12:05.734Z,8.17
2018-04-14T00:14:33.993Z,8.93
2018-04-14T00:17:02.281Z,10.03
2018-04-14T00:19:30.559Z,9.03
2018-04-14T00:21:58.853Z,10.47
2018-04-14T00:24:27.216Z,10.40
2018-04-14T00:26:55.603Z,11.03
2018-04-14T00:29:23.875Z,9.47
2018-04-14T00:31:52.173Z,9.70
2018-04-14T00:34:20.536Z,11.17
2018-04-14T00:36:48.833Z,10.47
2018-04-14T00:39:17.857Z,9.93
2018-04-14T00:41:46.183Z,10.33
2018-04-14T00:44:14.451Z,9.40
2018-04-14T00:46:42.839Z,10.90
2018-04-14T00:49:11.878Z,10.70
2018-04-14T00:51:40.211Z,9.10
2018-04-14T00:54:08.590Z,10.93
2018-04-14T00:56:36.859Z,11.23
2018-04-14T00:59:05.157Z,9.60
2018-04-14T01:01:33.523Z,9.00
2018-04-14T01:04:01.815Z,9.30
2018-04-14T01:06:30.091Z,9.90
2018-04-14T01:08:58.398Z,11.57
2018-04-14T01:11:26.725Z,11.03
2018-04-14T01:13:55.017Z,12.30
2018-04-14T01:16:23.294Z,11.33
2018-04-14T01:18:51.591Z,11.40
2018-04-14T01:21:20.672Z,11.70
2018-04-14T01:23:49.047Z,12.33
2018-04-14T01:26:17.422Z,12.03
2018-04-14T01:28:45.708Z,11.93
2018-04-14T01:31:13.986Z,12.60
2018-04-14T01:33:42.279Z,13.00
2018-04-14T01:36:10.547Z,11.83
2018-04-14T01:38:38.940Z,12.50
2018-04-14T01:41:07.235Z,11.33
2018-04-14T01:43:36.270Z,12.30
2018-04-14T01:46:04.643Z,13.67
2018-04-14T01:48:32.915Z,13.17
2018-04-14T01:51:01.215Z,13.03
2018-04-14T01:53:29.611Z,13.30
2018-04-14T01:55:57.911Z,14.60
2018-04-14T01:58:26.951Z,14.73
2018-04-14T02:00:55.260Z,12.73
2018-04-14T02:03:23.633Z,14.20
2018-04-14T02:05:51.940Z,12.90
2018-04-14T02:08:20.998Z,13.60
2018-04-14T02:10:49.308Z,11.53
2018-04-14T02:13:18.366Z,13.47
2018-04-14T02:15:46.663Z,12.33
2018-04-14T02:18:14.944Z,12.07
2018-04-14T02:20:44.747Z,13.07
2018-04-14T02:23:13.111Z,13.47
2018-04-14T02:25:41.425Z,14.43
2018-04-14T02:28:09.716Z,13.60
2018-04-14T02:30:38.094Z,15.23
2018-04-14T02:33:06.438Z,15.70
2018-04-14T02:35:34.702Z,14.20
2018-04-14T02:38:03.002Z,14.80
2018-04-14T02:40:31.276Z,12.77
2018-04-14T02:42:59.582Z,14.33
2018-04-14T02:45:27.864Z,12.07
2018-04-14T02:47:56.167Z,13.77
2018-04-14T02:50:25.252Z,14.47
2018-04-14T02:52:53.539Z,15.33
2018-04-14T02:55:22.578Z,14.83
2018-04-14T02:57:50.877Z,15.00
2018-04-14T03:00:19.137Z,14.20
2018-04-14T03:02:47.545Z,14.37
2018-04-14T03:05:15.820Z,15.53
2018-04-14T03:07:44.125Z,14.50
2018-04-14T03:10:13.174Z,14.80
2018-04-14T03:12:41.579Z,15.60
2018-04-14T03:15:09.837Z,16.63
2018-04-14T03:17:38.907Z,16.40
2018-04-14T03:20:07.183Z,17.00
2018-04-14T03:22:35.486Z,15.17
2018-04-14T03:25:03.755Z,14.50
2018-04-14T03:27:32.103Z,14.03
2018-04-14T03:30:00.371Z,15.00
2018-04-14T03:32:28.645Z,17.30
2018-04-14T03:34:56.938Z,18.60
2018-04-14T03:37:25.208Z,16.57
2018-04-14T03:39:53.507Z,16.03
2018-04-14T03:42:21.783Z,16.03
2018-04-14T03:44:50.158Z,17.60
2018-04-14T03:47:18.414Z,16.60
2018-04-14T03:49:46.739Z,18.07
2018-04-14T03:52:15.008Z,16.43
2018-04-14T03:54:43.366Z,15.73
2018-04-14T03:57:11.641Z,16.27
2018-04-14T03:59:39.936Z,15.87
2018-04-14T04:02:08.212Z,15.57
2018-04-14T04:04:36.575Z,14.67
2018-04-14T04:07:04.838Z,13.97
2018-04-14T04:09:33.134Z,11.50
2018-04-14T04:12:01.411Z,12.17
2018-04-14T04:14:29.715Z,11.80
2018-04-14T04:16:58.761Z,13.57
2018-04-14T04:19:38.899Z,13.13
2018-04-14T04:22:19.099Z,14.60
2018-04-14T04:24:59.370Z,15.67
2018-04-14T04:27:27.838Z,14.63
2018-04-14T04:29:56.136Z,16.57
2018-04-14T04:32:24.440Z,15.60
2018-04-14T04:34:52.715Z,16.67
2018-04-14T04:37:21.012Z,13.67
2018-04-14T04:39:49.292Z,14.50
2018-04-14T04:42:17.607Z,14.07
2018-04-14T04:44:45.868Z,12.83
2018-04-14T04:47:14.978Z,11.33
2018-04-14T04:49:43.248Z,12.50
2018-04-14T04:52:11.551Z,13.37
2018-04-14T04:54:39.827Z,12.93
2018-04-14T04:57:08.188Z,12.93
2018-04-14T04:59:36.450Z,12.90
2018-04-14T05:02:04.751Z,13.40
2018-04-14T05:04:33.027Z,13.47
2018-04-14T05:07:01.324Z,13.67
2018-04-14T05:09:30.392Z,14.23
2018-04-14T05:11:58.781Z,17.57
2018-04-14T05:14:27.066Z,16.50
2018-04-14T05:16:56.147Z,16.70
2018-04-14T05:19:24.418Z,16.20
2018-04-14T05:21:52.717Z,16.23
2018-04-14T05:24:20.998Z,18.90
2018-04-14T05:26:50.056Z,20.10
2018-04-14T05:29:18.374Z,20.67
2018-04-14T05:31:46.643Z,20.47
2018-04-14T05:34:15.012Z,21.30
2018-04-14T05:36:44.795Z,22.93
2018-04-14T05:39:13.205Z,23.43
2018-04-14T05:41:41.473Z,23.60
2018-04-14T05:44:09.781Z,20.97
2018-04-14T05:46:38.049Z,22.40
2018-04-14T05:49:07.114Z,22.30
2018-04-14T05:51:35.398Z,21.37
2018-04-14T05:54:03.717Z,21.00
2018-04-14T05:56:32.758Z,20.73
2018-04-14T05:59:01.058Z,20.60
2018-04-14T06:01:29.376Z,22.37
2018-04-14T06:03:59.185Z,21.57
2018-04-14T06:06:27.476Z,19.70
2018-04-14T06:08:56.595Z,19.60
2018-04-14T06:11:25.632Z,21.17
2018-04-14T06:13:53.945Z,19.60
2018-04-14T06:16:22.323Z,20.00
2018-04-14T06:18:50.610Z,20.40
2018-04-14T06:21:18.878Z,19.60
2018-04-14T06:23:47.972Z,18.73
2018-04-14T06:26:16.444Z,17.90
2018-04-14T06:28:44.827Z,18.40
2018-04-14T06:31:13.090Z,18.33
2018-04-14T06:33:41.391Z,17.27
2018-04-14T06:36:09.661Z,19.27
2018-04-14T06:38:37.996Z,17.10
2018-04-14T06:41:06.305Z,18.07
2018-04-14T06:43:34.588Z,19.30
2018-04-14T06:46:02.965Z,19.57
2018-04-14T06:48:31.242Z,20.17
2018-04-14T06:50:59.629Z,20.73
2018-04-14T06:53:28.005Z,21.03
2018-04-14T06:55:56.342Z,23.07
2018-04-14T06:58:24.599Z,24.53
2018-04-14T07:00:53.669Z,24.23
2018-04-14T07:03:21.949Z,24.83
2018-04-14T07:05:50.248Z,23.87
2018-04-14T07:08:19.304Z,23.97
2018-04-14T07:10:47.598Z,27.80
2018-04-14T07:13:16.676Z,25.97
2018-04-14T07:15:44.969Z,25.03
2018-04-14T07:18:13.226Z,27.33
2018-04-14T07:20:41.566Z,27.30
2018-04-14T07:23:10.604Z,27.43
2018-04-14T07:25:38.895Z,26.30
2018-04-14T07:28:07.163Z,27.03
2018-04-14T07:30:36.234Z,26.13
2018-04-14T07:33:04.507Z,24.63
2018-04-14T07:35:32.801Z,25.10
2018-04-14T07:38:01.091Z,26.03
2018-04-14T07:40:29.567Z,26.43
2018-04-14T07:42:57.847Z,25.13
2018-04-14T07:45:26.148Z,25.13
2018-04-14T07:47:54.414Z,28.43
2018-04-14T07:50:22.997Z,25.27
2018-04-14T07:52:51.267Z,27.10
2018-04-14T07:55:20.300Z,25.43
2018-04-14T07:57:49.377Z,25.70
2018-04-14T08:00:17.732Z,27.27
2018-04-14T08:02:46.025Z,29.23
2018-04-14T08:05:14.285Z,27.10
2018-04-14T08:07:42.671Z,26.83
2018-04-14T08:10:10.943Z,26.80
2018-04-14T08:12:39.316Z,27.60
2018-04-14T08:15:07.604Z,27.70
2018-04-14T08:17:35.885Z,27.90
2018-04-14T08:20:04.243Z,28.10
2018-04-14T08:22:32.556Z,29.03
2018-04-14T08:25:01.636Z,27.40
2018-04-14T08:27:30.111Z,27.33
2018-04-14T08:29:58.375Z,27.37
2018-04-14T08:32:26.667Z,29.60
2018-04-14T08:34:54.941Z,32.30
2018-04-14T08:37:23.257Z,29.00
2018-04-14T08:39:51.520Z,31.27
2018-04-14T08:42:20.178Z,28.27
2018-04-14T08:44:48.460Z,29.67
2018-04-14T08:47:16.761Z,26.43
2018-04-14T08:49:45.036Z,26.20
2018-04-14T08:52:13.312Z,28.20
2018-04-14T08:54:41.611Z,29.67
2018-04-14T08:57:10.665Z,29.47
2018-04-14T08:59:38.964Z,26.73
2018-04-14T09:02:07.245Z,30.43
2018-04-14T09:04:35.599Z,29.60
2018-04-14T09:07:03.866Z,28.40
2018-04-14T09:09:32.273Z,28.57
2018-04-14T09:12:00.641Z,28.50
2018-04-14T09:14:28.939Z,27.13
2018-04-14T09:16:57.282Z,28.77
2018-04-14T09:19:25.693Z,27.30
2018-04-14T09:21:53.963Z,28.07
2018-04-14T09:24:22.331Z,27.27
2018-04-14T09:26:50.602Z,29.50
2018-04-14T09:29:19.052Z,28.30
2018-04-14T09:31:47.319Z,26.43
2018-04-14T09:34:15.680Z,24.40
2018-04-14T09:36:44.708Z,26.37
2018-04-14T09:39:12.987Z,25.63
2018-04-14T09:41:41.290Z,26.93
2018-04-14T09:44:09.542Z,26.43
2018-04-14T09:46:37.842Z,24.50
2018-04-14T09:49:06.126Z,25.53
2018-04-14T09:51:34.430Z,24.37
2018-04-14T09:54:02.698Z,24.13
2018-04-14T09:56:31.012Z,23.53
2018-04-14T09:58:59.288Z,23.20
2018-04-14T10:01:27.593Z,22.00
2018-04-14T10:03:58.443Z,19.40
2018-04-14T10:06:26.741Z,20.20
2018-04-14T10:08:56.541Z,21.00
2018-04-14T10:11:24.823Z,18.40
2018-04-14T10:13:53.098Z,18.47
2018-04-14T10:16:21.473Z,18.80
2018-04-14T10:18:49.759Z,20.07
2018-04-14T10:21:18.845Z,17.80
2018-04-14T10:23:47.122Z,16.80
2018-04-14T10:26:15.414Z,17.23
2018-04-14T10:28:43.773Z,16.97
2018-04-14T10:31:12.161Z,17.37
2018-04-14T10:33:40.549Z,17.20
2018-04-14T10:36:08.918Z,18.47
2018-04-14T10:38:37.203Z,16.17
2018-04-14T10:41:06.262Z,19.20
2018-04-14T10:43:34.751Z,17.20
2018-04-14T10:46:03.013Z,16.07
2018-04-14T10:48:31.303Z,16.63
2018-04-14T10:50:59.572Z,17.23
2018-04-14T10:53:27.859Z,17.03
2018-04-14T10:55:56.237Z,15.57
2018-04-14T10:58:24.609Z,17.43
2018-04-14T11:00:52.882Z,16.63
2018-04-14T11:03:21.188Z,14.40
2018-04-14T11:05:49.456Z,16.53
2018-04-14T11:08:17.759Z,16.77
2018-04-14T11:10:46.807Z,17.70
2018-04-14T11:13:15.101Z,15.10
2018-04-14T11:15:43.471Z,15.73
2018-04-14T11:18:11.856Z,14.83
2018-04-14T11:20:40.105Z,15.00
2018-04-14T11:23:08.410Z,16.57
2018-04-14T11:25:36.792Z,16.07
2018-04-14T11:28:05.080Z,16.47
2018-04-14T11:30:33.446Z,16.70
2018-04-14T11:33:01.934Z,15.10
2018-04-14T11:35:30.219Z,16.77
2018-04-14T11:37:58.465Z,15.33
2018-04-14T11:40:26.868Z,14.97
2018-04-14T11:42:55.241Z,15.93
2018-04-14T11:45:23.563Z,16.77
2018-04-14T11:47:51.843Z,16.70
2018-04-14T11:50:20.150Z,16.53
2018-04-14T11:52:48.425Z,15.70
2018-04-14T11:55:16.830Z,15.00
2018-04-14T11:57:45.100Z,15.73
2018-04-14T12:00:13.417Z,16.37
2018-04-14T12:02:41.675Z,17.03
2018-04-14T12:05:10.038Z,14.17
2018-04-14T12:07:38.422Z,14.43
2018-04-14T12:10:06.707Z,14.97
2018-04-14T12:12:34.970Z,15.17
2018-04-14T12:15:03.328Z,16.30
2018-04-14T12:17:31.642Z,15.90
2018-04-14T12:20:00.008Z,17.33
2018-04-14T12:22:28.280Z,17.77
2018-04-14T12:24:56.599Z,18.13
2018-04-14T12:27:25.662Z,17.33
2018-04-14T12:29:53.978Z,17.87
2018-04-14T12:32:23.047Z,19.20
2018-04-14T12:34:52.137Z,20.77
2018-04-14T12:37:20.430Z,19.10
2018-04-14T12:39:48.703Z,20.47
2018-04-14T12:42:17.004Z,18.07
2018-04-14T12:44:46.042Z,20.90
2018-04-14T12:47:14.342Z,20.10
2018-04-14T12:49:42.631Z,20.90
2018-04-14T12:52:11.095Z,19.93
2018-04-14T12:54:39.358Z,19.50
2018-04-14T12:57:07.665Z,21.10
2018-04-14T12:59:35.943Z,18.90
2018-04-14T13:02:04.267Z,20.23
2018-04-14T13:04:32.527Z,19.50
2018-04-14T13:07:01.678Z,20.90
2018-04-14T13:09:29.964Z,18.70
2018-04-14T13:11:58.265Z,18.97
2018-04-14T13:14:27.351Z,17.80
2018-04-14T13:16:55.619Z,17.77
2018-04-14T13:19:23.999Z,17.67
2018-04-14T13:21:52.372Z,19.40
2018-04-14T13:24:20.751Z,17.10
2018-04-14T13:26:49.041Z,16.77
2018-04-14T13:29:17.310Z,18.53
2018-04-14T13:31:45.678Z,17.90
2018-04-14T13:34:13.956Z,16.50
2018-04-14T13:36:42.259Z,17.67
2018-04-14T13:39:11.294Z,16.47
2018-04-14T13:41:39.589Z,16.43
2018-04-14T13:44:07.867Z,16.60
2018-04-14T13:46:36.134Z,14.93
2018-04-14T13:49:04.559Z,18.00
2018-04-14T13:51:32.823Z,17.50
2018-04-14T13:54:01.118Z,17.07
2018-04-14T13:56:30.162Z,18.33
2018-04-14T13:58:58.462Z,16.97
2018-04-14T14:01:26.722Z,18.10
2018-04-14T14:03:55.021Z,18.53
2018-04-14T14:06:23.299Z,20.23
2018-04-14T14:08:51.599Z,18.70
2018-04-14T14:11:19.867Z,17.70
2018-04-14T14:13:48.939Z,18.40
2018-04-14T14:16:17.212Z,18.60
2018-04-14T14:18:45.508Z,20.17
2018-04-14T14:21:13.884Z,19.17
2018-04-14T14:23:42.174Z,18.73
2018-04-14T14:26:11.963Z,18.77
2018-04-14T14:28:40.254Z,19.73
2018-04-14T14:31:09.034Z,18.70
2018-04-14T14:33:38.116Z,20.70
2018-04-14T14:36:06.441Z,19.00
2018-04-14T14:38:34.800Z,21.90
2018-04-14T14:41:03.075Z,20.60
2018-04-14T14:43:31.370Z,21.03
2018-04-14T14:45:59.960Z,20.67
2018-04-14T14:48:28.319Z,20.13
2018-04-14T14:50:56.584Z,22.13
2018-04-14T14:53:24.861Z,21.13
2018-04-14T14:55:53.160Z,22.90
2018-04-14T14:58:21.423Z,23.10
2018-04-14T15:00:49.719Z,22.77
2018-04-14T15:03:18.004Z,25.13
2018-04-14T15:05:46.350Z,23.60
2018-04-14T15:08:14.623Z,21.63
2018-04-14T15:10:43.025Z,22.57
2018-04-14T15:13:11.499Z,21.30
2018-04-14T15:15:39.814Z,20.37
2018-04-14T15:18:08.848Z,20.57
2018-04-14T15:20:37.176Z,21.07
2018-04-14T15:23:06.197Z,20.63
2018-04-14T15:25:34.556Z,20.57
2018-04-14T15:28:03.590Z,20.40
2018-04-14T15:30:31.889Z,19.60
2018-04-14T15:33:00.214Z,20.23
2018-04-14T15:35:28.628Z,18.37
2018-04-14T15:37:56.937Z,18.53
2018-04-14T15:40:25.255Z,20.63
2018-04-14T15:42:53.557Z,17.27
2018-04-14T15:45:21.967Z,18.77
2018-04-14T15:47:50.357Z,19.07
2018-04-14T15:50:18.782Z,19.53
2018-04-14T15:52:47.212Z,19.57
2018-04-14T15:55:15.604Z,19.00
2018-04-14T15:57:43.952Z,19.10
2018-04-14T16:00:12.285Z,18.07
2018-04-14T16:02:41.538Z,17.73
2018-04-14T16:05:10.337Z,18.70
2018-04-14T16:07:39.459Z,23.07
2018-04-14T16:10:08.537Z,22.60
2018-04-14T16:12:36.904Z,21.23
2018-04-14T16:15:05.155Z,23.20
2018-04-14T16:17:33.557Z,22.60
2018-04-14T16:20:02.783Z,21.87
2018-04-14T16:22:31.089Z,21.20
2018-04-14T16:24:59.359Z,23.60
2018-04-14T16:27:27.660Z,21.17
2018-04-14T16:29:55.935Z,21.97
2018-04-14T16:32:24.251Z,20.00
2018-04-14T16:34:52.532Z,20.30
2018-04-14T16:37:20.902Z,20.37
2018-04-14T16:39:49.156Z,17.97
2018-04-14T16:42:17.427Z,19.00
2018-04-14T16:44:45.735Z,19.37
2018-04-14T16:47:14.066Z,20.23
2018-04-14T16:49:42.361Z,20.63
2018-04-14T16:52:10.621Z,19.60
2018-04-14T16:54:38.927Z,18.47
2018-04-14T16:57:07.210Z,20.60
2018-04-14T16:59:36.270Z,19.13
2018-04-14T17:02:04.541Z,18.30
2018-04-14T17:04:32.880Z,17.60
2018-04-14T17:07:01.154Z,19.40
2018-04-14T17:09:30.962Z,20.13
2018-04-14T17:11:59.243Z,19.10
2018-04-14T17:14:27.546Z,19.23
2018-04-14T17:16:56.595Z,18.90
2018-04-14T17:19:24.890Z,21.90
2018-04-14T17:21:53.155Z,19.37
2018-04-14T17:24:21.453Z,20.07
2018-04-14T17:26:49.725Z,20.03
2018-04-14T17:29:18.016Z,21.17
2018-04-14T17:31:47.100Z,22.27
2018-04-14T17:34:15.475Z,24.10
2018-04-14T17:36:43.727Z,24.23
2018-04-14T17:39:12.047Z,25.27
2018-04-14T17:41:40.412Z,26.57
2018-04-14T17:44:08.686Z,27.80
2018-04-14T17:46:36.978Z,26.93
2018-04-14T17:49:05.234Z,26.30
2018-04-14T17:51:33.570Z,26.73
2018-04-14T17:54:01.847Z,28.03
2018-04-14T17:56:30.150Z,29.83
2018-04-14T17:58:58.418Z,27.90
2018-04-14T18:01:26.714Z,28.60
2018-04-14T18:03:55.028Z,26.57
2018-04-14T18:06:23.336Z,25.10
2018-04-14T18:08:51.627Z,29.50
2018-04-14T18:11:19.927Z,28.10
2018-04-14T18:13:48.224Z,27.00
2018-04-14T18:16:16.519Z,25.33
2018-04-14T18:18:45.575Z,26.63
2018-04-14T18:21:13.999Z,27.30
2018-04-14T18:23:42.273Z,26.53
2018-04-14T18:26:10.547Z,26.10
2018-04-14T18:28:39.333Z,25.10
2018-04-14T18:31:07.611Z,27.67
2018-04-14T18:33:35.928Z,27.70
2018-04-14T18:36:04.189Z,27.43
2018-04-14T18:38:33.311Z,28.27
2018-04-14T18:41:02.318Z,27.57
2018-04-14T18:43:31.256Z,25.73
2018-04-14T18:45:59.894Z,29.67
2018-04-14T18:48:28.453Z,34.80
2018-04-14T18:50:56.752Z,35.40
2018-04-14T18:53:25.034Z,44.70
2018-04-14T18:55:53.298Z,42.80
2018-04-14T18:58:21.619Z,42.27
2018-04-14T19:00:49.886Z,67.57
2018-04-14T19:03:18.191Z,69.40
2018-04-14T19:05:46.468Z,77.73
2018-04-14T19:08:14.828Z,69.67
2018-04-14T19:10:44.002Z,65.33
2018-04-14T19:13:12.415Z,67.57
2018-04-14T19:15:41.294Z,92.07
2018-04-14T19:18:09.683Z,83.13
2018-04-14T19:20:37.959Z,60.30
2018-04-14T19:23:06.310Z,55.80
2018-04-14T19:25:34.591Z,47.60
2018-04-14T19:28:02.907Z,42.63
2018-04-14T19:30:31.165Z,42.20
2018-04-14T19:32:59.543Z,39.70
2018-04-14T19:35:27.822Z,42.70
2018-04-14T19:37:56.151Z,42.83
2018-04-14T19:40:25.175Z,49.07
2018-04-14T19:42:53.483Z,70.30
2018-04-14T19:45:21.790Z,61.67
2018-04-14T19:47:50.064Z,63.03
2018-04-14T19:50:19.231Z,63.60
2018-04-14T19:52:47.507Z,59.87
2018-04-14T19:55:15.843Z,56.80
2018-04-14T19:57:44.107Z,53.13
2018-04-14T20:00:12.416Z,44.83
2018-04-14T20:02:40.694Z,40.73
2018-04-14T20:05:08.992Z,33.30
2018-04-14T20:07:37.267Z,36.70
2018-04-14T20:10:05.566Z,74.83
2018-04-14T20:12:34.606Z,47.90
2018-04-14T20:15:03.672Z,54.77
2018-04-14T20:17:32.707Z,50.90
2018-04-14T20:20:01.006Z,50.13
2018-04-14T20:22:29.300Z,51.73
2018-04-14T20:24:57.593Z,62.40
2018-04-14T20:27:26.630Z,68.77
2018-04-14T20:29:55.250Z,64.00
2018-04-14T20:32:23.517Z,74.90
2018-04-14T20:34:51.906Z,94.27
2018-04-14T20:37:20.193Z,86.77
2018-04-14T20:39:48.467Z,82.80
2018-04-14T20:42:16.777Z,88.57
2018-04-14T20:44:45.058Z,109.20
2018-04-14T20:47:13.371Z,91.70
2018-04-14T20:49:41.643Z,103.33
2018-04-14T20:52:09.962Z,99.57
2018-04-14T20:54:38.240Z,104.67
2018-04-14T20:57:07.521Z,102.97
2018-04-14T20:59:35.799Z,79.43
2018-04-14T21:02:04.099Z,77.57
2018-04-14T21:04:33.146Z,66.37
2018-04-14T21:07:01.436Z,58.13
2018-04-14T21:09:29.713Z,67.73
2018-04-14T21:11:58.034Z,78.10
2018-04-14T21:14:27.090Z,65.80
2018-04-14T21:16:55.471Z,51.90
2018-04-14T21:19:23.850Z,54.67
2018-04-14T21:21:52.151Z,42.50
2018-04-14T21:24:20.425Z,44.17
2018-04-14T21:26:48.832Z,48.30
2018-04-14T21:29:17.079Z,45.83
2018-04-14T21:31:45.474Z,39.33
2018-04-14T21:34:13.747Z,40.60
2018-04-14T21:36:42.818Z,41.00
2018-04-14T21:39:11.194Z,37.40
2018-04-14T21:41:39.454Z,37.20
2018-04-14T21:44:07.755Z,35.70
2018-04-14T21:46:36.031Z,36.47
2018-04-14T21:49:04.338Z,34.90
2018-04-14T21:51:33.391Z,36.60
2018-04-14T21:54:01.700Z,36.30
2018-04-14T21:56:29.958Z,35.43
2018-04-14T21:58:58.265Z,36.10
2018-04-14T22:01:27.314Z,37.37
2018-04-14T22:03:55.644Z,37.07
2018-04-14T22:06:24.681Z,35.83
2018-04-14T22:08:53.085Z,36.07
2018-04-14T22:11:21.338Z,37.07
2018-04-14T22:13:49.643Z,34.60
2018-04-14T22:16:17.906Z,38.10
2018-04-14T22:18:46.211Z,36.90
2018-04-14T22:21:14.686Z,36.73
2018-04-14T22:23:43.270Z,39.50
2018-04-14T22:26:13.056Z,37.93
2018-04-14T22:28:41.452Z,36.87
2018-04-14T22:31:09.835Z,37.50
2018-04-14T22:33:38.132Z,37.67
2018-04-14T22:36:06.488Z,37.17
2018-04-14T22:38:34.795Z,37.13
2018-04-14T22:41:03.963Z,42.73
2018-04-14T22:43:32.230Z,37.77
2018-04-14T22:46:00.644Z,39.37
2018-04-14T22:48:29.002Z,38.77
2018-04-14T22:50:57.282Z,38.03
2018-04-14T22:53:25.554Z,37.97
2018-04-14T22:55:53.929Z,41.30
2018-04-14T22:58:22.203Z,40.63
2018-04-14T23:00:50.585Z,39.43
2018-04-14T23:03:18.845Z,38.07
2018-04-14T23:05:47.963Z,39.83
2018-04-14T23:08:16.244Z,41.40
2018-04-14T23:10:44.545Z,41.03
2018-04-14T23:13:12.827Z,40.10
2018-04-14T23:15:41.992Z,40.57
2018-04-14T23:18:10.271Z,41.90
2018-04-14T23:20:38.566Z,39.43
2018-04-14T23:23:07.611Z,41.73
2018-04-14T23:25:35.921Z,44.10
2018-04-14T23:28:04.200Z,65.67
2018-04-14T23:30:32.503Z,63.23
2018-04-14T23:33:01.548Z,62.77
2018-04-14T23:35:29.865Z,59.10
2018-04-14T23:37:58.133Z,51.47
2018-04-14T23:40:26.445Z,52.10
2018-04-14T23:42:55.488Z,50.10
2018-04-14T23:45:23.774Z,45.67
2018-04-14T23:47:52.843Z,47.97
2018-04-14T23:50:21.121Z,41.13
2018-04-14T23:52:49.410Z,43.10
2018-04-14T23:55:17.701Z,39.97
2018-04-14T23:57:46.088Z,41.70
